sensor_id;sensor_type;location;lat;lon;timestamp;P1;durP1;ratioP1;P2;durP2;ratioP2
13406;SDS011;6774;48.208;10.766;2024-03-07T00:01:54;6.37;;;5.93;;
13406;SDS011;6774;48.208;10.766;2024-03-07T00:04:23;6.17;;;5.47;;
13406;SDS011;6774;48.208;10.766;2024-03-07T00:06:51;5.80;;;5.33;;
13406;SDS011;6774;48.208;10.766;2024-03-07T00:09:19;7.67;;;7.07;;
13406;SDS011;6774;48.208;10.766;2024-03-07T00:11:50;6.93;;;6.33;;
13406;SDS011;6774;48.208;10.766;2024-03-07T00:14:18;7.63;;;7.03;;
13406;SDS011;6774;48.208;10.766;2024-03-07T00:16:47;7.03;;;6.63;;
13406;SDS011;6774;48.208;10.766;2024-03-07T00:19:15;6.57;;;6.07;;
13406;SDS011;6774;48.208;10.766;2024-03-07T00:21:44;8.67;;;7.87;;
13406;SDS011;6774;48.208;10.766;2024-03-07T00:24:14;6.13;;;5.73;;
13406;SDS011;6774;48.208;10.766;2024-03-07T00:26:42;7.17;;;6.57;;
13406;SDS011;6774;48.208;10.766;2024-03-07T00:29:10;6.97;;;6.47;;
13406;SDS011;6774;48.208;10.766;2024-03-07T00:31:38;6.73;;;6.27;;
13406;SDS011;6774;48.208;10.766;2024-03-07T00:34:05;8.50;;;7.80;;
13406;SDS011;6774;48.208;10.766;2024-03-07T00:36:43;6.13;;;5.73;;
13406;SDS011;6774;48.208;10.766;2024-03-07T00:39:11;7.30;;;6.70;;
13406;SDS011;6774;48.208;10.766;2024-03-07T00:41:40;7.27;;;6.67;;
13406;SDS011;6774;48.208;10.766;2024-03-07T00:44:08;6.13;;;5.63;;
13406;SDS011;6774;48.208;10.766;2024-03-07T00:46:36;7.77;;;7.13;;
13406;SDS011;6774;48.208;10.766;2024-03-07T00:49:04;5.97;;;5.47;;
13406;SDS011;6774;48.208;10.766;2024-03-07T00:51:32;6.80;;;6.30;;
13406;SDS011;6774;48.208;10.766;2024-03-07T00:54:01;6.20;;;5.63;;
13406;SDS011;6774;48.208;10.766;2024-03-07T00:56:29;5.97;;;5.53;;
13406;SDS011;6774;48.208;10.766;2024-03-07T00:58:57;7.33;;;6.67;;
13406;SDS011;6774;48.208;10.766;2024-03-07T01:01:24;7.83;;;7.23;;
13406;SDS011;6774;48.208;10.766;2024-03-07T01:03:52;8.47;;;7.77;;
13406;SDS011;6774;48.208;10.766;2024-03-07T01:06:20;6.90;;;6.40;;
13406;SDS011;6774;48.208;10.766;2024-03-07T01:08:48;6.10;;;5.60;;
13406;SDS011;6774;48.208;10.766;2024-03-07T01:11:18;7.13;;;6.63;;
13406;SDS011;6774;48.208;10.766;2024-03-07T01:13:46;6.50;;;5.77;;
13406;SDS011;6774;48.208;10.766;2024-03-07T01:16:14;7.53;;;6.97;;
13406;SDS011;6774;48.208;10.766;2024-03-07T01:18:42;7.97;;;7.37;;
13406;SDS011;6774;48.208;10.766;2024-03-07T01:21:10;9.93;;;7.40;;
13406;SDS011;6774;48.208;10.766;2024-03-07T01:23:37;7.20;;;6.60;;
13406;SDS011;6774;48.208;10.766;2024-03-07T01:26:05;7.23;;;6.73;;
13406;SDS011;6774;48.208;10.766;2024-03-07T01:28:36;7.93;;;7.17;;
13406;SDS011;6774;48.208;10.766;2024-03-07T01:31:04;7.43;;;6.83;;
13406;SDS011;6774;48.208;10.766;2024-03-07T01:33:31;7.07;;;6.47;;
13406;SDS011;6774;48.208;10.766;2024-03-07T01:35:59;8.20;;;7.50;;
13406;SDS011;6774;48.208;10.766;2024-03-07T01:38:27;6.90;;;6.37;;
13406;SDS011;6774;48.208;10.766;2024-03-07T01:40:55;7.13;;;6.53;;
13406;SDS011;6774;48.208;10.766;2024-03-07T01:43:23;6.03;;;5.53;;
13406;SDS011;6774;48.208;10.766;2024-03-07T01:45:53;7.17;;;6.60;;
13406;SDS011;6774;48.208;10.766;2024-03-07T01:48:25;7.73;;;7.13;;
13406;SDS011;6774;48.208;10.766;2024-03-07T01:50:55;8.20;;;7.60;;
13406;SDS011;6774;48.208;10.766;2024-03-07T01:53:23;7.77;;;7.13;;
13406;SDS011;6774;48.208;10.766;2024-03-07T01:55:53;6.53;;;6.10;;
13406;SDS011;6774;48.208;10.766;2024-03-07T01:58:21;7.40;;;6.80;;
13406;SDS011;6774;48.208;10.766;2024-03-07T02:00:49;8.37;;;7.83;;
13406;SDS011;6774;48.208;10.766;2024-03-07T02:03:19;8.17;;;7.47;;
13406;SDS011;6774;48.208;10.766;2024-03-07T02:05:46;7.93;;;7.13;;
13406;SDS011;6774;48.208;10.766;2024-03-07T02:08:14;7.43;;;6.73;;
13406;SDS011;6774;48.208;10.766;2024-03-07T02:10:42;8.10;;;7.50;;
13406;SDS011;6774;48.208;10.766;2024-03-07T02:13:10;10.10;;;8.37;;
13406;SDS011;6774;48.208;10.766;2024-03-07T02:15:38;6.80;;;6.20;;
13406;SDS011;6774;48.208;10.766;2024-03-07T02:18:05;8.03;;;7.23;;
13406;SDS011;6774;48.208;10.766;2024-03-07T02:20:34;7.27;;;6.57;;
13406;SDS011;6774;48.208;10.766;2024-03-07T02:23:04;8.87;;;8.07;;
13406;SDS011;6774;48.208;10.766;2024-03-07T02:25:31;8.50;;;7.90;;
13406;SDS011;6774;48.208;10.766;2024-03-07T02:28:03;10.40;;;9.37;;
13406;SDS011;6774;48.208;10.766;2024-03-07T02:30:32;11.10;;;10.10;;
13406;SDS011;6774;48.208;10.766;2024-03-07T02:33:00;10.20;;;9.20;;
13406;SDS011;6774;48.208;10.766;2024-03-07T02:35:33;9.70;;;8.90;;
13406;SDS011;6774;48.208;10.766;2024-03-07T02:38:04;15.10;;;10.03;;
13406;SDS011;6774;48.208;10.766;2024-03-07T02:40:32;9.63;;;8.83;;
13406;SDS011;6774;48.208;10.766;2024-03-07T02:43:00;13.60;;;10.43;;
13406;SDS011;6774;48.208;10.766;2024-03-07T02:45:29;11.47;;;10.27;;
13406;SDS011;6774;48.208;10.766;2024-03-07T02:47:57;11.17;;;9.17;;
13406;SDS011;6774;48.208;10.766;2024-03-07T02:50:25;10.47;;;9.43;;
13406;SDS011;6774;48.208;10.766;2024-03-07T02:52:53;13.03;;;11.53;;
13406;SDS011;6774;48.208;10.766;2024-03-07T02:55:22;13.37;;;12.07;;
13406;SDS011;6774;48.208;10.766;2024-03-07T02:57:50;14.50;;;13.10;;
13406;SDS011;6774;48.208;10.766;2024-03-07T03:00:18;14.73;;;13.13;;
13406;SDS011;6774;48.208;10.766;2024-03-07T03:02:47;15.87;;;12.97;;
13406;SDS011;6774;48.208;10.766;2024-03-07T03:05:16;17.20;;;11.67;;
13406;SDS011;6774;48.208;10.766;2024-03-07T03:07:45;12.40;;;11.30;;
13406;SDS011;6774;48.208;10.766;2024-03-07T03:10:20;11.93;;;10.90;;
13406;SDS011;6774;48.208;10.766;2024-03-07T03:12:53;13.10;;;11.80;;
13406;SDS011;6774;48.208;10.766;2024-03-07T03:15:21;13.03;;;9.77;;
13406;SDS011;6774;48.208;10.766;2024-03-07T03:17:49;11.60;;;10.37;;
13406;SDS011;6774;48.208;10.766;2024-03-07T03:20:18;9.83;;;8.87;;
13406;SDS011;6774;48.208;10.766;2024-03-07T03:22:52;10.93;;;10.03;;
13406;SDS011;6774;48.208;10.766;2024-03-07T03:25:40;10.80;;;9.70;;
13406;SDS011;6774;48.208;10.766;2024-03-07T03:28:09;10.80;;;9.80;;
13406;SDS011;6774;48.208;10.766;2024-03-07T03:30:37;11.00;;;9.90;;
13406;SDS011;6774;48.208;10.766;2024-03-07T03:33:06;11.03;;;10.10;;
13406;SDS011;6774;48.208;10.766;2024-03-07T03:35:34;13.13;;;11.77;;
13406;SDS011;6774;48.208;10.766;2024-03-07T03:38:02;13.97;;;12.43;;
13406;SDS011;6774;48.208;10.766;2024-03-07T03:40:30;13.10;;;11.93;;
13406;SDS011;6774;48.208;10.766;2024-03-07T03:42:58;13.73;;;12.27;;
13406;SDS011;6774;48.208;10.766;2024-03-07T03:45:28;13.37;;;12.03;;
13406;SDS011;6774;48.208;10.766;2024-03-07T03:47:58;14.40;;;13.03;;
13406;SDS011;6774;48.208;10.766;2024-03-07T03:50:26;17.40;;;15.60;;
13406;SDS011;6774;48.208;10.766;2024-03-07T03:52:55;15.03;;;13.50;;
13406;SDS011;6774;48.208;10.766;2024-03-07T03:55:23;18.90;;;16.93;;
13406;SDS011;6774;48.208;10.766;2024-03-07T03:57:51;17.80;;;15.80;;
13406;SDS011;6774;48.208;10.766;2024-03-07T04:00:20;17.17;;;15.20;;
13406;SDS011;6774;48.208;10.766;2024-03-07T04:02:50;19.77;;;17.63;;
13406;SDS011;6774;48.208;10.766;2024-03-07T04:05:19;20.70;;;18.20;;
13406;SDS011;6774;48.208;10.766;2024-03-07T04:07:48;17.63;;;15.87;;
13406;SDS011;6774;48.208;10.766;2024-03-07T04:10:16;21.87;;;18.63;;
13406;SDS011;6774;48.208;10.766;2024-03-07T04:12:45;22.47;;;20.17;;
13406;SDS011;6774;48.208;10.766;2024-03-07T04:15:13;18.70;;;16.57;;
13406;SDS011;6774;48.208;10.766;2024-03-07T04:17:45;20.13;;;17.87;;
13406;SDS011;6774;48.208;10.766;2024-03-07T04:20:16;24.50;;;18.37;;
13406;SDS011;6774;48.208;10.766;2024-03-07T04:22:46;21.00;;;18.80;;
13406;SDS011;6774;48.208;10.766;2024-03-07T04:25:15;21.30;;;18.20;;
13406;SDS011;6774;48.208;10.766;2024-03-07T04:27:43;22.93;;;19.40;;
13406;SDS011;6774;48.208;10.766;2024-03-07T04:30:11;21.40;;;18.03;;
13406;SDS011;6774;48.208;10.766;2024-03-07T04:32:41;25.80;;;21.00;;
13406;SDS011;6774;48.208;10.766;2024-03-07T04:35:10;24.13;;;20.23;;
13406;SDS011;6774;48.208;10.766;2024-03-07T04:37:43;20.27;;;18.10;;
13406;SDS011;6774;48.208;10.766;2024-03-07T04:40:11;25.23;;;18.80;;
13406;SDS011;6774;48.208;10.766;2024-03-07T04:42:44;22.43;;;18.87;;
13406;SDS011;6774;48.208;10.766;2024-03-07T04:45:13;20.43;;;18.33;;
13406;SDS011;6774;48.208;10.766;2024-03-07T04:47:41;19.63;;;16.93;;
13406;SDS011;6774;48.208;10.766;2024-03-07T04:50:11;20.80;;;18.60;;
13406;SDS011;6774;48.208;10.766;2024-03-07T04:52:40;21.03;;;18.03;;
13406;SDS011;6774;48.208;10.766;2024-03-07T04:55:09;22.57;;;19.87;;
13406;SDS011;6774;48.208;10.766;2024-03-07T04:57:37;20.03;;;17.93;;
13406;SDS011;6774;48.208;10.766;2024-03-07T05:00:07;18.90;;;17.00;;
13406;SDS011;6774;48.208;10.766;2024-03-07T05:02:41;22.00;;;19.73;;
13406;SDS011;6774;48.208;10.766;2024-03-07T05:05:09;22.03;;;17.87;;
13406;SDS011;6774;48.208;10.766;2024-03-07T05:07:37;23.13;;;19.63;;
13406;SDS011;6774;48.208;10.766;2024-03-07T05:10:06;22.47;;;18.63;;
13406;SDS011;6774;48.208;10.766;2024-03-07T05:12:36;21.03;;;18.60;;
13406;SDS011;6774;48.208;10.766;2024-03-07T05:15:04;20.87;;;18.30;;
13406;SDS011;6774;48.208;10.766;2024-03-07T05:17:36;22.87;;;20.40;;
13406;SDS011;6774;48.208;10.766;2024-03-07T05:20:06;21.10;;;18.67;;
13406;SDS011;6774;48.208;10.766;2024-03-07T05:22:37;20.97;;;17.93;;
13406;SDS011;6774;48.208;10.766;2024-03-07T05:25:07;21.33;;;18.70;;
13406;SDS011;6774;48.208;10.766;2024-03-07T05:27:37;23.87;;;19.70;;
13406;SDS011;6774;48.208;10.766;2024-03-07T05:30:05;21.20;;;19.00;;
13406;SDS011;6774;48.208;10.766;2024-03-07T05:32:37;22.40;;;19.67;;
13406;SDS011;6774;48.208;10.766;2024-03-07T05:35:05;19.03;;;17.03;;
13406;SDS011;6774;48.208;10.766;2024-03-07T05:37:34;23.67;;;20.13;;
13406;SDS011;6774;48.208;10.766;2024-03-07T05:40:02;21.77;;;19.47;;
13406;SDS011;6774;48.208;10.766;2024-03-07T05:42:30;23.10;;;19.37;;
13406;SDS011;6774;48.208;10.766;2024-03-07T05:45:00;21.67;;;19.00;;
13406;SDS011;6774;48.208;10.766;2024-03-07T05:47:27;23.30;;;19.10;;
13406;SDS011;6774;48.208;10.766;2024-03-07T05:49:56;22.17;;;18.87;;
13406;SDS011;6774;48.208;10.766;2024-03-07T05:52:23;19.47;;;17.60;;
13406;SDS011;6774;48.208;10.766;2024-03-07T05:54:51;22.97;;;19.97;;
13406;SDS011;6774;48.208;10.766;2024-03-07T05:57:19;19.70;;;17.07;;
13406;SDS011;6774;48.208;10.766;2024-03-07T05:59:47;25.23;;;20.00;;
13406;SDS011;6774;48.208;10.766;2024-03-07T06:02:16;23.20;;;20.97;;
13406;SDS011;6774;48.208;10.766;2024-03-07T06:04:45;26.10;;;19.40;;
13406;SDS011;6774;48.208;10.766;2024-03-07T06:07:14;22.20;;;19.70;;
13406;SDS011;6774;48.208;10.766;2024-03-07T06:09:41;22.83;;;20.30;;
13406;SDS011;6774;48.208;10.766;2024-03-07T06:12:10;25.07;;;20.00;;
13406;SDS011;6774;48.208;10.766;2024-03-07T06:14:52;26.37;;;21.77;;
13406;SDS011;6774;48.208;10.766;2024-03-07T06:17:22;23.10;;;18.87;;
13406;SDS011;6774;48.208;10.766;2024-03-07T06:19:50;22.83;;;19.50;;
13406;SDS011;6774;48.208;10.766;2024-03-07T06:22:18;23.43;;;19.57;;
13406;SDS011;6774;48.208;10.766;2024-03-07T06:24:46;24.93;;;21.80;;
13406;SDS011;6774;48.208;10.766;2024-03-07T06:27:13;23.70;;;20.90;;
13406;SDS011;6774;48.208;10.766;2024-03-07T06:29:53;25.47;;;21.97;;
13406;SDS011;6774;48.208;10.766;2024-03-07T06:32:23;25.03;;;19.90;;
13406;SDS011;6774;48.208;10.766;2024-03-07T06:34:52;24.20;;;21.17;;
13406;SDS011;6774;48.208;10.766;2024-03-07T06:37:20;26.40;;;21.50;;
13406;SDS011;6774;48.208;10.766;2024-03-07T06:39:48;27.00;;;23.00;;
13406;SDS011;6774;48.208;10.766;2024-03-07T06:42:15;27.60;;;21.93;;
13406;SDS011;6774;48.208;10.766;2024-03-07T06:44:44;29.07;;;22.00;;
13406;SDS011;6774;48.208;10.766;2024-03-07T06:47:12;27.00;;;23.37;;
13406;SDS011;6774;48.208;10.766;2024-03-07T06:49:41;27.73;;;22.20;;
13406;SDS011;6774;48.208;10.766;2024-03-07T06:52:09;27.67;;;24.07;;
13406;SDS011;6774;48.208;10.766;2024-03-07T06:54:37;24.27;;;19.20;;
13406;SDS011;6774;48.208;10.766;2024-03-07T06:57:05;29.67;;;22.47;;
13406;SDS011;6774;48.208;10.766;2024-03-07T06:59:34;24.80;;;22.03;;
13406;SDS011;6774;48.208;10.766;2024-03-07T07:02:03;25.13;;;20.07;;
13406;SDS011;6774;48.208;10.766;2024-03-07T07:04:31;24.57;;;21.97;;
13406;SDS011;6774;48.208;10.766;2024-03-07T07:07:09;29.60;;;25.97;;
13406;SDS011;6774;48.208;10.766;2024-03-07T07:09:39;33.93;;;28.33;;
13406;SDS011;6774;48.208;10.766;2024-03-07T07:12:08;39.73;;;27.20;;
13406;SDS011;6774;48.208;10.766;2024-03-07T07:14:36;30.57;;;23.50;;
13406;SDS011;6774;48.208;10.766;2024-03-07T07:17:04;27.63;;;23.13;;
13406;SDS011;6774;48.208;10.766;2024-03-07T07:19:36;33.43;;;24.67;;
13406;SDS011;6774;48.208;10.766;2024-03-07T07:22:04;31.50;;;20.57;;
13406;SDS011;6774;48.208;10.766;2024-03-07T07:24:34;28.47;;;23.40;;
13406;SDS011;6774;48.208;10.766;2024-03-07T07:27:02;31.00;;;24.67;;
13406;SDS011;6774;48.208;10.766;2024-03-07T07:29:30;29.50;;;22.73;;
13406;SDS011;6774;48.208;10.766;2024-03-07T07:31:58;27.03;;;24.17;;
13406;SDS011;6774;48.208;10.766;2024-03-07T07:34:25;27.60;;;23.53;;
13406;SDS011;6774;48.208;10.766;2024-03-07T07:36:53;27.83;;;24.03;;
13406;SDS011;6774;48.208;10.766;2024-03-07T07:39:21;24.03;;;21.17;;
13406;SDS011;6774;48.208;10.766;2024-03-07T07:41:50;28.33;;;25.30;;
13406;SDS011;6774;48.208;10.766;2024-03-07T07:44:18;30.90;;;24.40;;
13406;SDS011;6774;48.208;10.766;2024-03-07T07:46:46;29.03;;;23.47;;
13406;SDS011;6774;48.208;10.766;2024-03-07T07:49:15;30.03;;;25.40;;
13406;SDS011;6774;48.208;10.766;2024-03-07T07:51:43;28.07;;;21.67;;
13406;SDS011;6774;48.208;10.766;2024-03-07T07:54:11;33.17;;;25.27;;
13406;SDS011;6774;48.208;10.766;2024-03-07T07:56:39;28.87;;;23.00;;
13406;SDS011;6774;48.208;10.766;2024-03-07T07:59:08;31.47;;;25.53;;
13406;SDS011;6774;48.208;10.766;2024-03-07T08:01:37;25.83;;;22.90;;
13406;SDS011;6774;48.208;10.766;2024-03-07T08:04:05;26.10;;;20.97;;
13406;SDS011;6774;48.208;10.766;2024-03-07T08:06:35;27.83;;;21.93;;
13406;SDS011;6774;48.208;10.766;2024-03-07T08:09:02;30.67;;;24.90;;
13406;SDS011;6774;48.208;10.766;2024-03-07T08:11:33;30.50;;;24.53;;
13406;SDS011;6774;48.208;10.766;2024-03-07T08:14:01;35.43;;;22.53;;
13406;SDS011;6774;48.208;10.766;2024-03-07T08:16:31;28.47;;;22.97;;
13406;SDS011;6774;48.208;10.766;2024-03-07T08:18:59;28.10;;;23.07;;
13406;SDS011;6774;48.208;10.766;2024-03-07T08:21:29;27.87;;;22.83;;
13406;SDS011;6774;48.208;10.766;2024-03-07T08:23:58;26.80;;;23.97;;
13406;SDS011;6774;48.208;10.766;2024-03-07T08:26:29;30.90;;;23.97;;
13406;SDS011;6774;48.208;10.766;2024-03-07T08:28:59;25.57;;;22.40;;
13406;SDS011;6774;48.208;10.766;2024-03-07T08:31:35;28.20;;;23.03;;
13406;SDS011;6774;48.208;10.766;2024-03-07T08:34:04;34.40;;;25.53;;
13406;SDS011;6774;48.208;10.766;2024-03-07T08:36:31;25.90;;;23.20;;
13406;SDS011;6774;48.208;10.766;2024-03-07T08:38:59;25.20;;;20.30;;
13406;SDS011;6774;48.208;10.766;2024-03-07T08:41:29;23.40;;;20.80;;
13406;SDS011;6774;48.208;10.766;2024-03-07T08:43:57;29.10;;;23.37;;
13406;SDS011;6774;48.208;10.766;2024-03-07T08:46:25;23.47;;;20.10;;
13406;SDS011;6774;48.208;10.766;2024-03-07T08:48:55;25.93;;;20.93;;
13406;SDS011;6774;48.208;10.766;2024-03-07T08:51:23;25.57;;;21.63;;
13406;SDS011;6774;48.208;10.766;2024-03-07T08:53:50;24.97;;;22.47;;
13406;SDS011;6774;48.208;10.766;2024-03-07T08:56:18;24.27;;;21.67;;
13406;SDS011;6774;48.208;10.766;2024-03-07T08:58:46;27.43;;;24.33;;
13406;SDS011;6774;48.208;10.766;2024-03-07T09:01:14;23.60;;;20.20;;
13406;SDS011;6774;48.208;10.766;2024-03-07T09:03:41;24.07;;;20.93;;
13406;SDS011;6774;48.208;10.766;2024-03-07T09:06:10;22.67;;;20.33;;
13406;SDS011;6774;48.208;10.766;2024-03-07T09:08:40;25.77;;;23.20;;
13406;SDS011;6774;48.208;10.766;2024-03-07T09:11:07;29.63;;;24.03;;
13406;SDS011;6774;48.208;10.766;2024-03-07T09:13:35;27.40;;;23.33;;
13406;SDS011;6774;48.208;10.766;2024-03-07T09:16:03;27.80;;;23.77;;
13406;SDS011;6774;48.208;10.766;2024-03-07T09:18:31;23.57;;;21.17;;
13406;SDS011;6774;48.208;10.766;2024-03-07T09:20:59;29.97;;;22.00;;
13406;SDS011;6774;48.208;10.766;2024-03-07T09:23:28;26.40;;;22.50;;
13406;SDS011;6774;48.208;10.766;2024-03-07T09:25:56;31.57;;;24.07;;
13406;SDS011;6774;48.208;10.766;2024-03-07T09:28:25;28.60;;;24.33;;
13406;SDS011;6774;48.208;10.766;2024-03-07T09:30:53;27.97;;;25.17;;
13406;SDS011;6774;48.208;10.766;2024-03-07T09:33:21;28.70;;;25.63;;
13406;SDS011;6774;48.208;10.766;2024-03-07T09:35:54;25.70;;;22.43;;
13406;SDS011;6774;48.208;10.766;2024-03-07T09:38:21;27.37;;;22.93;;
13406;SDS011;6774;48.208;10.766;2024-03-07T09:40:51;27.87;;;22.93;;
13406;SDS011;6774;48.208;10.766;2024-03-07T09:43:19;30.63;;;24.43;;
13406;SDS011;6774;48.208;10.766;2024-03-07T09:45:49;31.73;;;23.60;;
13406;SDS011;6774;48.208;10.766;2024-03-07T09:48:17;27.47;;;23.37;;
13406;SDS011;6774;48.208;10.766;2024-03-07T09:50:46;46.83;;;24.67;;
13406;SDS011;6774;48.208;10.766;2024-03-07T09:53:18;26.93;;;22.63;;
13406;SDS011;6774;48.208;10.766;2024-03-07T09:55:47;31.77;;;24.77;;
13406;SDS011;6774;48.208;10.766;2024-03-07T09:58:16;25.83;;;21.67;;
13406;SDS011;6774;48.208;10.766;2024-03-07T10:00:47;23.73;;;21.23;;
13406;SDS011;6774;48.208;10.766;2024-03-07T10:03:17;24.87;;;22.07;;
13406;SDS011;6774;48.208;10.766;2024-03-07T10:05:48;28.43;;;22.20;;
13406;SDS011;6774;48.208;10.766;2024-03-07T10:08:16;25.73;;;21.70;;
13406;SDS011;6774;48.208;10.766;2024-03-07T10:10:44;28.40;;;21.47;;
13406;SDS011;6774;48.208;10.766;2024-03-07T10:13:14;25.57;;;23.00;;
13406;SDS011;6774;48.208;10.766;2024-03-07T10:15:43;26.47;;;22.13;;
13406;SDS011;6774;48.208;10.766;2024-03-07T10:18:11;26.33;;;22.03;;
13406;SDS011;6774;48.208;10.766;2024-03-07T10:20:41;26.50;;;23.67;;
13406;SDS011;6774;48.208;10.766;2024-03-07T10:23:11;27.27;;;22.87;;
13406;SDS011;6774;48.208;10.766;2024-03-07T10:25:39;27.10;;;23.40;;
13406;SDS011;6774;48.208;10.766;2024-03-07T10:28:08;24.97;;;22.33;;
13406;SDS011;6774;48.208;10.766;2024-03-07T10:30:40;30.83;;;22.73;;
13406;SDS011;6774;48.208;10.766;2024-03-07T10:33:12;27.13;;;24.30;;
13406;SDS011;6774;48.208;10.766;2024-03-07T10:35:41;27.17;;;23.40;;
13406;SDS011;6774;48.208;10.766;2024-03-07T10:38:09;32.07;;;24.77;;
13406;SDS011;6774;48.208;10.766;2024-03-07T10:40:40;33.67;;;27.50;;
13406;SDS011;6774;48.208;10.766;2024-03-07T10:43:10;28.60;;;24.63;;
13406;SDS011;6774;48.208;10.766;2024-03-07T10:45:42;32.90;;;28.10;;
13406;SDS011;6774;48.208;10.766;2024-03-07T10:48:16;30.33;;;24.37;;
13406;SDS011;6774;48.208;10.766;2024-03-07T10:50:52;30.67;;;25.77;;
13406;SDS011;6774;48.208;10.766;2024-03-07T10:53:29;29.60;;;25.10;;
13406;SDS011;6774;48.208;10.766;2024-03-07T10:56:05;32.03;;;25.73;;
13406;SDS011;6774;48.208;10.766;2024-03-07T10:58:42;29.97;;;24.50;;
13406;SDS011;6774;48.208;10.766;2024-03-07T11:01:21;33.67;;;26.57;;
13406;SDS011;6774;48.208;10.766;2024-03-07T11:03:52;31.27;;;26.70;;
13406;SDS011;6774;48.208;10.766;2024-03-07T11:06:23;31.87;;;26.80;;
13406;SDS011;6774;48.208;10.766;2024-03-07T11:08:52;33.53;;;25.47;;
13406;SDS011;6774;48.208;10.766;2024-03-07T11:11:21;30.57;;;23.70;;
13406;SDS011;6774;48.208;10.766;2024-03-07T11:13:51;31.80;;;26.13;;
13406;SDS011;6774;48.208;10.766;2024-03-07T11:16:21;29.20;;;24.70;;
13406;SDS011;6774;48.208;10.766;2024-03-07T11:22:04;26.83;;;23.87;;
13406;SDS011;6774;48.208;10.766;2024-03-07T11:24:41;30.93;;;27.63;;
13406;SDS011;6774;48.208;10.766;2024-03-07T11:27:10;31.27;;;25.33;;
13406;SDS011;6774;48.208;10.766;2024-03-07T11:29:45;32.80;;;26.97;;
13406;SDS011;6774;48.208;10.766;2024-03-07T11:32:20;31.73;;;25.80;;
13406;SDS011;6774;48.208;10.766;2024-03-07T11:34:50;28.27;;;24.97;;
13406;SDS011;6774;48.208;10.766;2024-03-07T11:40:13;29.70;;;24.23;;
13406;SDS011;6774;48.208;10.766;2024-03-07T11:43:01;30.90;;;25.30;;
13406;SDS011;6774;48.208;10.766;2024-03-07T11:45:31;26.30;;;23.37;;
13406;SDS011;6774;48.208;10.766;2024-03-07T11:48:05;21.87;;;19.10;;
13406;SDS011;6774;48.208;10.766;2024-03-07T11:50:35;24.53;;;21.57;;
13406;SDS011;6774;48.208;10.766;2024-03-07T11:53:05;22.73;;;19.47;;
13406;SDS011;6774;48.208;10.766;2024-03-07T11:55:34;24.27;;;20.53;;
13406;SDS011;6774;48.208;10.766;2024-03-07T11:58:11;23.17;;;19.20;;
13406;SDS011;6774;48.208;10.766;2024-03-07T12:00:42;30.93;;;19.70;;
13406;SDS011;6774;48.208;10.766;2024-03-07T12:03:12;22.57;;;20.17;;
13406;SDS011;6774;48.208;10.766;2024-03-07T12:05:43;30.00;;;24.57;;
13406;SDS011;6774;48.208;10.766;2024-03-07T12:08:13;28.00;;;22.50;;
13406;SDS011;6774;48.208;10.766;2024-03-07T12:10:42;20.87;;;18.70;;
13406;SDS011;6774;48.208;10.766;2024-03-07T12:13:15;24.50;;;19.87;;
13406;SDS011;6774;48.208;10.766;2024-03-07T12:15:43;22.80;;;20.07;;
13406;SDS011;6774;48.208;10.766;2024-03-07T12:18:11;24.23;;;20.17;;
13406;SDS011;6774;48.208;10.766;2024-03-07T12:20:41;23.27;;;19.67;;
13406;SDS011;6774;48.208;10.766;2024-03-07T12:23:15;23.50;;;20.10;;
13406;SDS011;6774;48.208;10.766;2024-03-07T12:25:46;22.63;;;20.20;;
13406;SDS011;6774;48.208;10.766;2024-03-07T12:28:14;25.93;;;21.57;;
13406;SDS011;6774;48.208;10.766;2024-03-07T12:30:48;25.70;;;22.97;;
13406;SDS011;6774;48.208;10.766;2024-03-07T12:33:17;22.50;;;19.70;;
13406;SDS011;6774;48.208;10.766;2024-03-07T12:35:46;22.53;;;20.13;;
13406;SDS011;6774;48.208;10.766;2024-03-07T12:38:18;23.47;;;20.90;;
13406;SDS011;6774;48.208;10.766;2024-03-07T12:41:01;21.83;;;19.03;;
13406;SDS011;6774;48.208;10.766;2024-03-07T12:43:32;26.63;;;21.60;;
13406;SDS011;6774;48.208;10.766;2024-03-07T12:46:00;21.53;;;18.40;;
13406;SDS011;6774;48.208;10.766;2024-03-07T12:48:31;21.33;;;18.50;;
13406;SDS011;6774;48.208;10.766;2024-03-07T12:50:59;25.37;;;19.87;;
13406;SDS011;6774;48.208;10.766;2024-03-07T12:53:29;25.63;;;22.77;;
13406;SDS011;6774;48.208;10.766;2024-03-07T12:55:57;22.13;;;19.80;;
13406;SDS011;6774;48.208;10.766;2024-03-07T12:58:25;29.67;;;19.07;;
13406;SDS011;6774;48.208;10.766;2024-03-07T13:00:55;25.10;;;22.13;;
13406;SDS011;6774;48.208;10.766;2024-03-07T13:03:23;19.83;;;17.73;;
13406;SDS011;6774;48.208;10.766;2024-03-07T13:05:56;23.10;;;17.60;;
13406;SDS011;6774;48.208;10.766;2024-03-07T13:08:28;22.93;;;17.50;;
13406;SDS011;6774;48.208;10.766;2024-03-07T13:10:57;21.23;;;19.07;;
13406;SDS011;6774;48.208;10.766;2024-03-07T13:13:27;20.33;;;18.23;;
13406;SDS011;6774;48.208;10.766;2024-03-07T13:15:57;21.07;;;18.10;;
13406;SDS011;6774;48.208;10.766;2024-03-07T13:18:25;20.07;;;17.77;;
13406;SDS011;6774;48.208;10.766;2024-03-07T13:20:52;19.47;;;17.47;;
13406;SDS011;6774;48.208;10.766;2024-03-07T13:23:20;17.03;;;14.57;;
13406;SDS011;6774;48.208;10.766;2024-03-07T13:25:54;16.97;;;15.27;;
13406;SDS011;6774;48.208;10.766;2024-03-07T13:28:22;18.00;;;14.17;;
13406;SDS011;6774;48.208;10.766;2024-03-07T13:30:51;15.17;;;13.63;;
13406;SDS011;6774;48.208;10.766;2024-03-07T13:33:21;16.03;;;14.10;;
13406;SDS011;6774;48.208;10.766;2024-03-07T13:35:51;16.17;;;14.63;;
13406;SDS011;6774;48.208;10.766;2024-03-07T13:38:20;18.00;;;16.20;;
13406;SDS011;6774;48.208;10.766;2024-03-07T13:40:48;17.67;;;15.97;;
13406;SDS011;6774;48.208;10.766;2024-03-07T13:43:18;15.80;;;14.17;;
13406;SDS011;6774;48.208;10.766;2024-03-07T13:45:45;15.53;;;13.93;;
13406;SDS011;6774;48.208;10.766;2024-03-07T13:48:15;15.30;;;13.57;;
13406;SDS011;6774;48.208;10.766;2024-03-07T13:50:44;15.57;;;14.03;;
13406;SDS011;6774;48.208;10.766;2024-03-07T13:53:24;15.50;;;13.43;;
13406;SDS011;6774;48.208;10.766;2024-03-07T13:56:06;16.90;;;15.13;;
13406;SDS011;6774;48.208;10.766;2024-03-07T13:59:23;17.00;;;15.30;;
13406;SDS011;6774;48.208;10.766;2024-03-07T14:02:09;18.80;;;15.37;;
13406;SDS011;6774;48.208;10.766;2024-03-07T14:05:08;16.17;;;14.30;;
13406;SDS011;6774;48.208;10.766;2024-03-07T14:08:00;15.23;;;13.73;;
13406;SDS011;6774;48.208;10.766;2024-03-07T14:10:57;18.50;;;16.83;;
13406;SDS011;6774;48.208;10.766;2024-03-07T14:13:45;14.83;;;12.90;;
13406;SDS011;6774;48.208;10.766;2024-03-07T14:16:43;12.70;;;11.40;;
13406;SDS011;6774;48.208;10.766;2024-03-07T14:22:52;33.87;;;14.77;;
13406;SDS011;6774;48.208;10.766;2024-03-07T14:25:43;15.43;;;12.70;;
13406;SDS011;6774;48.208;10.766;2024-03-07T14:28:31;14.60;;;13.03;;
13406;SDS011;6774;48.208;10.766;2024-03-07T14:31:15;15.60;;;13.97;;
13406;SDS011;6774;48.208;10.766;2024-03-07T14:34:01;15.13;;;13.57;;
13406;SDS011;6774;48.208;10.766;2024-03-07T14:36:38;19.70;;;14.57;;
13406;SDS011;6774;48.208;10.766;2024-03-07T14:39:11;16.83;;;15.23;;
13406;SDS011;6774;48.208;10.766;2024-03-07T14:41:43;18.43;;;14.10;;
13406;SDS011;6774;48.208;10.766;2024-03-07T14:44:16;14.03;;;12.23;;
13406;SDS011;6774;48.208;10.766;2024-03-07T14:46:45;16.73;;;14.50;;
13406;SDS011;6774;48.208;10.766;2024-03-07T14:49:17;13.77;;;12.43;;
13406;SDS011;6774;48.208;10.766;2024-03-07T14:51:45;15.83;;;14.37;;
13406;SDS011;6774;48.208;10.766;2024-03-07T14:54:25;13.70;;;11.50;;